Time;durP1;ratioP1;P1;durP2;ratioP2;P2;SDS_P1;SDS_P2;PMS_P1;PMS_P2;Temp;Humidity;BMP_temperature;BMP_pressure;BME280_temperature;BME280_humidity;BME280_pressure;Samples;Min_cycle;Max_cycle;Signal;HPM_P1;HPM_P2
2022/04/03 00:00:43;;;;;;;9.40;5.43;;;;;;;;;;4995596;28;20476;-76
2022/04/03 00:03:08;;;;;;;7.25;5.07;;;;;;;;;;4994757;28;20113;-76
2022/04/03 00:05:38;;;;;;;9.50;6.07;;;;;;;;;;4994963;28;20102;-76
2022/04/03 00:08:04;;;;;;;8.52;5.88;;;;;;;;;;4995393;28;20026;-75
2022/04/03 00:10:30;;;;;;;14.30;6.22;;;;;;;;;;4994927;28;20038;-75
2022/04/03 00:12:55;;;;;;;8.65;6.38;;;;;;;;;;4995229;28;20393;-76
2022/04/03 00:15:20;;;;;;;9.40;6.00;;;;;;;;;;4995315;28;20420;-75
2022/04/03 00:17:46;;;;;;;10.57;6.65;;;;;;;;;;4995206;28;20053;-75
2022/04/03 00:20:12;;;;;;;10.63;6.75;;;;;;;;;;4995375;28;20031;-75
2022/04/03 00:22:38;;;;;;;13.30;7.30;;;;;;;;;;4995430;28;20493;-75
2022/04/03 00:25:04;;;;;;;12.65;6.75;;;;;;;;;;4995372;28;20161;-75
2022/04/03 00:27:30;;;;;;;11.82;6.10;;;;;;;;;;4995420;28;20364;-76
2022/04/03 00:29:56;;;;;;;9.55;6.30;;;;;;;;;;4994640;28;20022;-76
2022/04/03 00:32:21;;;;;;;12.82;6.80;;;;;;;;;;4995872;28;20034;-75
2022/04/03 00:34:47;;;;;;;16.35;8.65;;;;;;;;;;4994984;28;20031;-75
2022/04/03 00:37:13;;;;;;;22.48;11.57;;;;;;;;;;4994713;28;20066;-75
2022/04/03 00:39:39;;;;;;;15.65;8.57;;;;;;;;;;4995120;28;20116;-75
2022/04/03 00:42:07;;;;;;;15.88;8.57;;;;;;;;;;4994062;28;20033;-77
2022/04/03 00:44:33;;;;;;;17.92;9.10;;;;;;;;;;4994654;28;20037;-77
2022/04/03 00:46:59;;;;;;;21.88;10.38;;;;;;;;;;4994641;28;20491;-74
2022/04/03 00:49:24;;;;;;;30.85;13.93;;;;;;;;;;4994279;28;20034;-75
2022/04/03 00:51:50;;;;;;;24.27;11.65;;;;;;;;;;4993864;28;20042;-75
2022/04/03 00:54:15;;;;;;;27.42;13.73;;;;;;;;;;4994031;28;20041;-75
2022/04/03 00:56:41;;;;;;;18.55;9.35;;;;;;;;;;4993262;28;20121;-75
2022/04/03 00:59:06;;;;;;;19.08;9.73;;;;;;;;;;4992801;28;20026;-77
2022/04/03 01:01:32;;;;;;;15.55;8.32;;;;;;;;;;4992781;28;20413;-75
2022/04/03 01:03:59;;;;;;;22.65;10.48;;;;;;;;;;4993217;28;20269;-78
2022/04/03 01:06:24;;;;;;;20.88;10.55;;;;;;;;;;4989460;28;20030;-75
2022/04/03 01:08:49;;;;;;;20.27;10.50;;;;;;;;;;4992544;28;20027;-75
2022/04/03 01:11:21;;;;;;;40.72;17.33;;;;;;;;;;4992300;28;20033;-77
2022/04/03 01:13:50;;;;;;;29.75;16.05;;;;;;;;;;4992719;28;20114;-77
2022/04/03 01:16:16;;;;;;;20.08;12.00;;;;;;;;;;4992434;28;20169;-75
2022/04/03 01:18:42;;;;;;;16.35;9.57;;;;;;;;;;4992229;28;20034;-75
2022/04/03 01:21:07;;;;;;;16.05;8.95;;;;;;;;;;4992353;28;20029;-77
2022/04/03 01:23:32;;;;;;;10.10;7.20;;;;;;;;;;4992288;28;20034;-75
2022/04/03 01:25:58;;;;;;;9.93;6.15;;;;;;;;;;4992332;28;20029;-75
2022/04/03 01:28:24;;;;;;;10.18;6.10;;;;;;;;;;4991413;28;20058;-76
2022/04/03 01:30:49;;;;;;;9.23;5.90;;;;;;;;;;4992106;28;20030;-77
2022/04/03 01:33:16;;;;;;;10.38;6.25;;;;;;;;;;4992008;28;20038;-77
2022/04/03 01:35:41;;;;;;;11.23;7.20;;;;;;;;;;4992039;28;20503;-77
2022/04/03 01:38:07;;;;;;;10.57;7.22;;;;;;;;;;4991078;28;20030;-77
2022/04/03 01:40:35;;;;;;;11.40;7.68;;;;;;;;;;4989138;28;20045;-77
2022/04/03 01:43:01;;;;;;;11.43;8.10;;;;;;;;;;4991012;28;20236;-77
2022/04/03 01:45:27;;;;;;;9.98;7.45;;;;;;;;;;4991797;28;20022;-77
2022/04/03 01:47:52;;;;;;;9.93;7.00;;;;;;;;;;4991203;28;20027;-77
2022/04/03 01:50:17;;;;;;;12.00;7.47;;;;;;;;;;4991761;28;20030;-77
2022/04/03 01:52:43;;;;;;;12.45;7.63;;;;;;;;;;4991761;28;20494;-77
2022/04/03 01:55:08;;;;;;;14.70;7.97;;;;;;;;;;4991518;28;20030;-77
2022/04/03 01:57:34;;;;;;;14.18;8.85;;;;;;;;;;4991918;28;20037;-77
2022/04/03 01:59:59;;;;;;;14.27;8.32;;;;;;;;;;4992056;28;20037;-77
2022/04/03 02:02:31;;;;;;;11.07;7.22;;;;;;;;;;5067317;28;20440;-76
2022/04/03 02:04:56;;;;;;;12.32;6.97;;;;;;;;;;5064220;28;20441;-77
2022/04/03 02:07:21;;;;;;;14.32;8.38;;;;;;;;;;5066063;28;20120;-77
2022/04/03 02:09:47;;;;;;;9.57;6.57;;;;;;;;;;5067331;28;20035;-77
2022/04/03 02:12:13;;;;;;;11.40;6.50;;;;;;;;;;5067271;28;20036;-77
2022/04/03 02:14:38;;;;;;;10.85;7.10;;;;;;;;;;5061561;28;20029;-77
2022/04/03 02:17:03;;;;;;;11.52;7.70;;;;;;;;;;5047673;28;20032;-77
2022/04/03 02:19:29;;;;;;;13.25;7.35;;;;;;;;;;5053307;28;20028;-76
2022/04/03 02:21:54;;;;;;;10.68;6.15;;;;;;;;;;5067910;28;20390;-77
2022/04/03 02:24:19;;;;;;;11.82;6.72;;;;;;;;;;5068455;28;20143;-78
2022/04/03 02:26:45;;;;;;;9.90;6.50;;;;;;;;;;5069541;28;20036;-79
2022/04/03 02:29:10;;;;;;;9.98;6.53;;;;;;;;;;5068891;28;20433;-78
2022/04/03 02:31:36;;;;;;;8.88;6.47;;;;;;;;;;5069922;28;20025;-79
2022/04/03 02:34:02;;;;;;;10.75;6.80;;;;;;;;;;5070078;28;20107;-78
2022/04/03 02:36:28;;;;;;;10.25;6.75;;;;;;;;;;5064819;28;20041;-79
2022/04/03 02:38:53;;;;;;;8.18;6.15;;;;;;;;;;5049936;28;20068;-79
2022/04/03 02:41:19;;;;;;;8.70;6.05;;;;;;;;;;5050154;28;20310;-78
2022/04/03 02:43:45;;;;;;;10.73;6.70;;;;;;;;;;5064766;28;20091;-78
2022/04/03 02:46:10;;;;;;;11.27;6.07;;;;;;;;;;5071619;28;20409;-78
2022/04/03 02:48:36;;;;;;;9.85;6.57;;;;;;;;;;5072064;28;20103;-78
2022/04/03 02:51:01;;;;;;;9.68;6.13;;;;;;;;;;5072152;28;20331;-78
2022/04/03 02:53:27;;;;;;;8.80;6.43;;;;;;;;;;5068766;28;20029;-79
2022/04/03 02:55:53;;;;;;;10.13;6.28;;;;;;;;;;5068206;28;20089;-78
2022/04/03 02:58:18;;;;;;;12.85;6.40;;;;;;;;;;5069072;28;20028;-78
2022/04/03 03:00:43;;;;;;;12.43;6.55;;;;;;;;;;5070421;28;20078;-78
2022/04/03 03:03:09;;;;;;;12.27;6.57;;;;;;;;;;5069985;28;20056;-78
2022/04/03 03:05:34;;;;;;;10.55;6.15;;;;;;;;;;5070428;28;20021;-77
2022/04/03 03:08:00;;;;;;;13.80;6.45;;;;;;;;;;5069898;28;20513;-78
2022/04/03 03:10:25;;;;;;;11.50;6.28;;;;;;;;;;5068059;28;20111;-78
2022/04/03 03:12:51;;;;;;;14.18;6.43;;;;;;;;;;5062405;28;20029;-78
2022/04/03 03:15:17;;;;;;;9.95;6.30;;;;;;;;;;5055680;28;20033;-78
2022/04/03 03:17:43;;;;;;;9.98;6.35;;;;;;;;;;5056296;28;20024;-78
2022/04/03 03:20:09;;;;;;;9.70;6.72;;;;;;;;;;5056642;28;20087;-79
2022/04/03 03:22:35;;;;;;;11.20;7.07;;;;;;;;;;5056851;28;20068;-77
2022/04/03 03:25:03;;;;;;;10.10;6.53;;;;;;;;;;5055578;28;20086;-77
2022/04/03 03:27:29;;;;;;;11.27;5.97;;;;;;;;;;5042467;28;20228;-78
2022/04/03 03:29:54;;;;;;;9.95;6.65;;;;;;;;;;5036108;28;20070;-78
2022/04/03 03:32:20;;;;;;;10.68;6.25;;;;;;;;;;5036161;28;20112;-78
2022/04/03 03:34:45;;;;;;;9.00;6.72;;;;;;;;;;5036562;28;20254;-78
2022/04/03 03:37:10;;;;;;;11.90;7.53;;;;;;;;;;5036185;28;20051;-78
2022/04/03 03:39:36;;;;;;;10.07;7.10;;;;;;;;;;5035059;28;20029;-78
2022/04/03 03:42:02;;;;;;;10.13;7.53;;;;;;;;;;5035880;28;20029;-78
2022/04/03 03:44:28;;;;;;;12.45;7.50;;;;;;;;;;5035794;28;20034;-78
2022/04/03 03:46:53;;;;;;;10.43;7.78;;;;;;;;;;5035668;28;20056;-78
2022/04/03 03:49:19;;;;;;;13.25;7.28;;;;;;;;;;5035699;28;20596;-78
2022/04/03 03:51:45;;;;;;;8.52;6.32;;;;;;;;;;5035650;28;20029;-78
2022/04/03 03:54:10;;;;;;;9.38;6.30;;;;;;;;;;5035796;28;20021;-77
2022/04/03 03:56:36;;;;;;;10.55;7.03;;;;;;;;;;5037425;28;20471;-78
2022/04/03 03:59:03;;;;;;;9.57;6.90;;;;;;;;;;5036992;28;20029;-78
2022/04/03 04:01:29;;;;;;;11.75;6.97;;;;;;;;;;5037887;28;20104;-78
2022/04/03 04:03:54;;;;;;;10.15;6.82;;;;;;;;;;5035665;28;20056;-78
2022/04/03 04:06:19;;;;;;;10.73;7.07;;;;;;;;;;5035665;28;20586;-78
2022/04/03 04:08:44;;;;;;;8.95;6.35;;;;;;;;;;5034722;28;20530;-78
2022/04/03 04:11:10;;;;;;;10.27;6.88;;;;;;;;;;5035401;28;20071;-79
2022/04/03 04:13:35;;;;;;;9.80;6.47;;;;;;;;;;5035460;28;20021;-78
2022/04/03 04:16:00;;;;;;;12.00;6.45;;;;;;;;;;5048068;28;20033;-78
2022/04/03 04:18:26;;;;;;;9.98;6.38;;;;;;;;;;5054836;28;20108;-78
2022/04/03 04:20:52;;;;;;;9.65;5.75;;;;;;;;;;5055202;28;20012;-78
2022/04/03 04:23:19;;;;;;;12.20;6.25;;;;;;;;;;5055123;28;20080;-78
2022/04/03 04:25:44;;;;;;;9.25;6.55;;;;;;;;;;5054719;28;20379;-78
2022/04/03 04:28:10;;;;;;;11.90;6.63;;;;;;;;;;5055722;28;20032;-78
2022/04/03 04:30:37;;;;;;;10.65;6.45;;;;;;;;;;5055192;28;20049;-78
2022/04/03 04:33:02;;;;;;;14.32;7.13;;;;;;;;;;5042405;28;20032;-79
2022/04/03 04:35:27;;;;;;;12.13;6.85;;;;;;;;;;5035667;28;20026;-79
2022/04/03 04:37:53;;;;;;;9.95;6.22;;;;;;;;;;5034872;28;20127;-78
2022/04/03 04:40:18;;;;;;;8.43;6.38;;;;;;;;;;5035294;28;20029;-79
2022/04/03 04:42:43;;;;;;;13.68;7.28;;;;;;;;;;5035072;28;20035;-78
2022/04/03 04:45:09;;;;;;;11.40;7.05;;;;;;;;;;5034518;28;20471;-79
2022/04/03 04:47:36;;;;;;;11.98;7.10;;;;;;;;;;5034378;28;20539;-77
2022/04/03 04:50:05;;;;;;;12.88;7.35;;;;;;;;;;5035183;28;20303;-78
2022/04/03 04:52:30;;;;;;;12.90;7.45;;;;;;;;;;5034352;28;20475;-78
2022/04/03 04:54:55;;;;;;;12.35;7.47;;;;;;;;;;5034449;28;20053;-78
2022/04/03 04:57:21;;;;;;;9.55;6.35;;;;;;;;;;5034695;28;20030;-78
2022/04/03 04:59:46;;;;;;;12.45;7.90;;;;;;;;;;5034261;28;20031;-78
2022/04/03 05:02:11;;;;;;;12.00;7.38;;;;;;;;;;5032621;28;20124;-78
2022/04/03 05:04:37;;;;;;;11.45;6.80;;;;;;;;;;5031802;28;20100;-78
2022/04/03 05:07:02;;;;;;;10.52;6.65;;;;;;;;;;5047796;28;20025;-78
2022/04/03 05:09:28;;;;;;;9.63;6.15;;;;;;;;;;5051816;28;20037;-77
2022/04/03 05:11:53;;;;;;;11.65;6.65;;;;;;;;;;5051045;28;20040;-77
2022/04/03 05:14:19;;;;;;;11.02;7.55;;;;;;;;;;5051103;28;20076;-78
2022/04/03 05:16:44;;;;;;;12.60;8.13;;;;;;;;;;5050891;28;20021;-78
2022/04/03 05:19:13;;;;;;;16.67;8.73;;;;;;;;;;5051037;28;20090;-77
2022/04/03 05:21:40;;;;;;;13.25;8.98;;;;;;;;;;5050242;28;20025;-77
2022/04/03 05:24:05;;;;;;;13.65;8.65;;;;;;;;;;5035248;28;20502;-78
2022/04/03 05:26:31;;;;;;;11.98;7.72;;;;;;;;;;5030923;28;20112;-77
2022/04/03 05:28:56;;;;;;;15.75;10.30;;;;;;;;;;5030309;28;20049;-77
2022/04/03 05:31:24;;;;;;;14.35;9.57;;;;;;;;;;5030451;28;20033;-77
2022/04/03 05:33:49;;;;;;;14.27;8.95;;;;;;;;;;5030703;28;20021;-77
2022/04/03 05:36:15;;;;;;;13.20;8.32;;;;;;;;;;5049826;28;20035;-78
2022/04/03 05:38:40;;;;;;;12.55;7.53;;;;;;;;;;5046666;28;20075;-77
2022/04/03 05:41:05;;;;;;;13.23;8.82;;;;;;;;;;5032037;28;20056;-78
2022/04/03 05:43:31;;;;;;;11.80;8.07;;;;;;;;;;5030740;28;20116;-77
2022/04/03 05:45:56;;;;;;;13.88;8.35;;;;;;;;;;5030656;28;20036;-77
2022/04/03 05:48:21;;;;;;;14.32;9.18;;;;;;;;;;5035546;28;20455;-77
2022/04/03 05:50:46;;;;;;;15.20;9.63;;;;;;;;;;5047696;28;20021;-78
2022/04/03 05:53:12;;;;;;;12.13;8.50;;;;;;;;;;5050437;28;20168;-77
2022/04/03 05:55:37;;;;;;;14.18;9.32;;;;;;;;;;5050286;28;20383;-77
2022/04/03 05:58:03;;;;;;;15.38;10.60;;;;;;;;;;5050203;28;20530;-77
2022/04/03 06:00:29;;;;;;;11.98;8.02;;;;;;;;;;5048741;28;20029;-77
2022/04/03 06:02:59;;;;;;;16.55;9.05;;;;;;;;;;5050436;28;20021;-78
2022/04/03 06:05:26;;;;;;;17.77;9.55;;;;;;;;;;5045542;28;20082;-77
2022/04/03 06:07:52;;;;;;;19.83;9.70;;;;;;;;;;5050427;28;20394;-77
2022/04/03 06:10:19;;;;;;;14.38;8.85;;;;;;;;;;5050027;28;20047;-78
2022/04/03 06:13:02;;;;;;;13.93;9.10;;;;;;;;;;5050452;28;20398;-78
2022/04/03 06:15:33;;;;;;;11.52;7.90;;;;;;;;;;5050484;28;20029;-78
2022/04/03 06:17:59;;;;;;;10.73;7.25;;;;;;;;;;5048533;28;20033;-78
2022/04/03 06:20:24;;;;;;;12.18;8.48;;;;;;;;;;5049019;28;20036;-77
2022/04/03 06:22:50;;;;;;;13.25;7.63;;;;;;;;;;5030626;28;20036;-77
2022/04/03 06:25:15;;;;;;;11.88;8.35;;;;;;;;;;5030372;28;20025;-78
2022/04/03 06:27:41;;;;;;;12.85;8.15;;;;;;;;;;5030371;28;20382;-78
2022/04/03 06:30:07;;;;;;;15.52;9.73;;;;;;;;;;5030346;28;20075;-78
2022/04/03 06:32:33;;;;;;;16.92;9.60;;;;;;;;;;5030118;28;20542;-78
2022/04/03 06:34:58;;;;;;;13.35;8.82;;;;;;;;;;5029755;28;20140;-77
2022/04/03 06:37:24;;;;;;;13.45;8.40;;;;;;;;;;5030808;28;20036;-77
2022/04/03 06:39:49;;;;;;;13.23;8.88;;;;;;;;;;5029667;28;20077;-77
2022/04/03 06:42:14;;;;;;;12.07;8.50;;;;;;;;;;5030392;28;20116;-77
2022/04/03 06:44:40;;;;;;;9.85;7.28;;;;;;;;;;5030288;28;20029;-77
2022/04/03 06:47:06;;;;;;;11.88;7.40;;;;;;;;;;5031249;28;20029;-77
2022/04/03 06:49:32;;;;;;;16.15;9.50;;;;;;;;;;5034031;28;20337;-77
2022/04/03 06:51:58;;;;;;;12.15;8.27;;;;;;;;;;5033106;28;20025;-77
2022/04/03 06:54:24;;;;;;;12.25;8.05;;;;;;;;;;5034827;28;20076;-77
2022/04/03 06:56:52;;;;;;;13.82;8.98;;;;;;;;;;5034361;28;20021;-79
2022/04/03 06:59:17;;;;;;;10.93;7.80;;;;;;;;;;5034690;28;20033;-77
2022/04/03 07:01:42;;;;;;;11.60;8.00;;;;;;;;;;5033817;28;20797;-78
2022/04/03 07:04:08;;;;;;;14.10;8.43;;;;;;;;;;5033983;28;20029;-77
2022/04/03 07:06:33;;;;;;;16.05;10.30;;;;;;;;;;5035076;28;20029;-77
2022/04/03 07:08:58;;;;;;;10.23;7.57;;;;;;;;;;5034166;28;20025;-76
2022/04/03 07:11:24;;;;;;;11.23;7.45;;;;;;;;;;5053676;28;20493;-76
2022/04/03 07:13:49;;;;;;;10.27;7.57;;;;;;;;;;5051917;28;20030;-76
2022/04/03 07:16:15;;;;;;;14.35;7.15;;;;;;;;;;5053350;28;20028;-76
2022/04/03 07:18:40;;;;;;;9.18;7.20;;;;;;;;;;5053165;28;20112;-76
2022/04/03 07:21:06;;;;;;;10.90;7.30;;;;;;;;;;5043920;28;20176;-76
2022/04/03 07:23:31;;;;;;;12.48;7.40;;;;;;;;;;5034353;28;20513;-76
2022/04/03 07:25:56;;;;;;;9.18;7.18;;;;;;;;;;5035766;28;20086;-76
2022/04/03 07:28:22;;;;;;;10.05;7.63;;;;;;;;;;5033985;28;20025;-76
2022/04/03 07:30:48;;;;;;;9.55;7.35;;;;;;;;;;5033495;28;20021;-76
2022/04/03 07:33:13;;;;;;;9.98;7.53;;;;;;;;;;5033727;28;20029;-76
2022/04/03 07:35:38;;;;;;;9.30;7.43;;;;;;;;;;5033476;28;20078;-76
2022/04/03 07:38:04;;;;;;;9.40;7.30;;;;;;;;;;5033786;28;20040;-76
2022/04/03 07:40:30;;;;;;;9.63;6.93;;;;;;;;;;5033714;28;20071;-76
2022/04/03 07:42:56;;;;;;;10.43;7.43;;;;;;;;;;5032534;28;20045;-76
2022/04/03 07:45:22;;;;;;;8.68;6.53;;;;;;;;;;5033903;28;20337;-76
2022/04/03 07:47:51;;;;;;;9.65;7.18;;;;;;;;;;5032371;28;20026;-76
2022/04/03 07:50:20;;;;;;;8.55;6.57;;;;;;;;;;5034536;28;20022;-76
2022/04/03 07:52:47;;;;;;;8.52;5.63;;;;;;;;;;5032933;28;20083;-76
2022/04/03 07:55:13;;;;;;;7.47;5.88;;;;;;;;;;5032764;28;20245;-75
2022/04/03 07:57:39;;;;;;;7.70;5.38;;;;;;;;;;5034537;28;20513;-76
2022/04/03 08:00:10;;;;;;;5.70;5.10;;;;;;;;;;5033924;28;20033;-75
2022/04/03 08:02:37;;;;;;;5.88;4.82;;;;;;;;;;5032357;28;20048;-76
2022/04/03 08:05:03;;;;;;;6.93;4.75;;;;;;;;;;5033300;28;20029;-75
2022/04/03 08:07:45;;;;;;;7.78;5.00;;;;;;;;;;5032299;28;20097;-75
2022/04/03 08:10:20;;;;;;;8.00;4.30;;;;;;;;;;5031924;28;20076;-75
2022/04/03 08:12:48;;;;;;;10.68;6.07;;;;;;;;;;5054594;22;20026;-74
2022/04/03 08:15:15;;;;;;;7.32;4.47;;;;;;;;;;5031371;28;20029;-74
2022/04/03 08:17:41;;;;;;;4.80;4.20;;;;;;;;;;5032941;28;20395;-74
2022/04/03 08:20:08;;;;;;;7.40;5.28;;;;;;;;;;5033891;28;20062;-74
2022/04/03 08:22:35;;;;;;;6.25;4.80;;;;;;;;;;5031808;28;20063;-74
2022/04/03 08:25:01;;;;;;;5.88;5.10;;;;;;;;;;5013059;28;20056;-75
2022/04/03 08:27:44;;;;;;;6.22;5.05;;;;;;;;;;5011521;28;20487;-77
2022/04/03 08:30:13;;;;;;;5.50;4.65;;;;;;;;;;5037906;28;20135;-75
2022/04/03 08:32:38;;;;;;;11.15;8.25;;;;;;;;;;5029255;28;20067;-74
2022/04/03 08:35:04;;;;;;;6.82;5.68;;;;;;;;;;5032605;28;20100;-73
2022/04/03 08:37:29;;;;;;;4.55;4.13;;;;;;;;;;5028400;28;20040;-75
2022/04/03 08:39:54;;;;;;;5.45;3.97;;;;;;;;;;5019544;28;20523;-75
2022/04/03 08:42:20;;;;;;;4.80;3.75;;;;;;;;;;5014288;28;20044;-74
2022/04/03 08:44:45;;;;;;;3.85;3.28;;;;;;;;;;5007001;28;20025;-75
2022/04/03 08:47:15;;;;;;;5.03;3.65;;;;;;;;;;5016069;28;20053;-75
2022/04/03 08:49:41;;;;;;;4.40;3.65;;;;;;;;;;5010054;28;20104;-74
2022/04/03 08:52:09;;;;;;;4.47;3.95;;;;;;;;;;5012515;28;20041;-75
2022/04/03 08:54:35;;;;;;;4.82;3.95;;;;;;;;;;5003983;28;20574;-74
2022/04/03 08:57:01;;;;;;;3.42;3.10;;;;;;;;;;5007814;28;20025;-75
2022/04/03 08:59:27;;;;;;;5.88;3.60;;;;;;;;;;5013745;28;20022;-73
2022/04/03 09:01:52;;;;;;;4.30;3.47;;;;;;;;;;5013885;28;20026;-76
2022/04/03 09:04:20;;;;;;;3.35;3.05;;;;;;;;;;5012172;28;20100;-74
2022/04/03 09:06:57;;;;;;;4.85;3.38;;;;;;;;;;5013151;28;20029;-74
2022/04/03 09:09:24;;;;;;;4.80;3.50;;;;;;;;;;5011814;28;20025;-74
2022/04/03 09:12:09;;;;;;;4.25;3.20;;;;;;;;;;5011526;28;20030;-72
2022/04/03 09:14:35;;;;;;;4.93;3.00;;;;;;;;;;5010906;28;20143;-74
2022/04/03 09:17:01;;;;;;;3.38;2.72;;;;;;;;;;5011448;28;20423;-74
2022/04/03 09:19:34;;;;;;;3.30;2.95;;;;;;;;;;4993239;28;20045;-73
2022/04/03 09:22:01;;;;;;;4.00;2.67;;;;;;;;;;5010810;28;20391;-72
2022/04/03 09:24:27;;;;;;;3.92;2.88;;;;;;;;;;5010513;28;20029;-72
2022/04/03 09:27:01;;;;;;;3.35;3.00;;;;;;;;;;4992777;28;20038;-71
2022/04/03 09:29:27;;;;;;;6.05;4.45;;;;;;;;;;5010320;28;20018;-72
2022/04/03 09:32:00;;;;;;;3.00;2.67;;;;;;;;;;5010814;28;20391;-71
2022/04/03 09:34:27;;;;;;;4.10;3.20;;;;;;;;;;5009913;28;20181;-72
2022/04/03 09:37:00;;;;;;;3.97;3.20;;;;;;;;;;5010527;28;20026;-71
2022/04/03 09:39:30;;;;;;;3.10;2.75;;;;;;;;;;5010043;28;20026;-72
2022/04/03 09:42:04;;;;;;;3.22;2.60;;;;;;;;;;5010190;28;20033;-72
2022/04/03 09:44:33;;;;;;;3.50;3.08;;;;;;;;;;5010141;28;20022;-71
2022/04/03 09:47:27;;;;;;;4.63;3.10;;;;;;;;;;5010191;28;20032;-71
2022/04/03 09:49:56;;;;;;;2.33;2.13;;;;;;;;;;5009560;28;20065;-71
2022/04/03 09:52:40;;;;;;;3.25;2.28;;;;;;;;;;5010347;28;20052;-71
2022/04/03 09:55:08;;;;;;;2.75;2.33;;;;;;;;;;5010030;28;20095;-72
2022/04/03 09:57:33;;;;;;;2.75;2.05;;;;;;;;;;5010031;28;20075;-71
2022/04/03 09:59:58;;;;;;;2.95;2.63;;;;;;;;;;5010352;28;20116;-72
2022/04/03 10:02:24;;;;;;;3.17;2.88;;;;;;;;;;5018465;28;20025;-69
2022/04/03 10:04:51;;;;;;;4.00;2.97;;;;;;;;;;5029847;28;20036;-70
2022/04/03 10:07:17;;;;;;;5.32;4.22;;;;;;;;;;5025972;28;20120;-70
2022/04/03 10:09:47;;;;;;;4.63;2.47;;;;;;;;;;5010297;28;20108;-69
2022/04/03 10:12:18;;;;;;;2.88;2.50;;;;;;;;;;5010319;28;20503;-70
2022/04/03 10:14:45;;;;;;;4.55;3.13;;;;;;;;;;5010168;28;20463;-72
2022/04/03 10:17:11;;;;;;;3.63;2.78;;;;;;;;;;5010446;28;20112;-69
2022/04/03 10:19:37;;;;;;;5.68;3.08;;;;;;;;;;5011251;28;20030;-70
2022/04/03 10:22:05;;;;;;;3.22;2.45;;;;;;;;;;5010323;28;20037;-70
2022/04/03 10:24:35;;;;;;;5.13;3.85;;;;;;;;;;5013927;28;20026;-70
2022/04/03 10:27:24;;;;;;;4.43;3.10;;;;;;;;;;5013592;28;20406;-70
2022/04/03 10:29:50;;;;;;;7.82;4.07;;;;;;;;;;5013433;28;20032;-70
2022/04/03 10:32:27;;;;;;;7.70;4.07;;;;;;;;;;5013989;28;20388;-70
2022/04/03 10:34:55;;;;;;;3.05;2.40;;;;;;;;;;4994773;28;20038;-71
2022/04/03 10:37:27;;;;;;;3.50;2.22;;;;;;;;;;5001685;28;20034;-71
2022/04/03 10:40:00;;;;;;;5.10;3.03;;;;;;;;;;5010945;28;20100;-72
2022/04/03 10:42:26;;;;;;;12.15;5.28;;;;;;;;;;5017193;28;20081;-69
2022/04/03 10:45:14;;;;;;;12.27;5.70;;;;;;;;;;5014859;28;20026;-71
2022/04/03 10:47:41;;;;;;;5.18;3.42;;;;;;;;;;5024463;28;20387;-71
2022/04/03 10:50:08;;;;;;;5.63;3.58;;;;;;;;;;5013431;28;20408;-71
2022/04/03 10:52:37;;;;;;;2.35;2.10;;;;;;;;;;5022164;28;20032;-72
2022/04/03 10:55:25;;;;;;;3.15;2.30;;;;;;;;;;5012378;28;20123;-73
2022/04/03 10:58:02;;;;;;;2.38;2.13;;;;;;;;;;5013795;28;20049;-72
2022/04/03 11:00:27;;;;;;;2.20;2.00;;;;;;;;;;5012774;28;20164;-73
2022/04/03 11:03:00;;;;;;;3.67;2.10;;;;;;;;;;5013303;28;20124;-72
2022/04/03 11:05:25;;;;;;;2.10;1.90;;;;;;;;;;5012246;28;20297;-72
2022/04/03 11:07:51;;;;;;;7.35;3.97;;;;;;;;;;5010367;28;20498;-71
2022/04/03 11:10:48;;;;;;;3.05;1.95;;;;;;;;;;5007290;28;20257;-70
2022/04/03 11:13:18;;;;;;;2.35;2.00;;;;;;;;;;5012814;28;20407;-70
2022/04/03 11:16:08;;;;;;;2.53;1.92;;;;;;;;;;5012696;28;20034;-72
2022/04/03 11:18:36;;;;;;;2.58;2.33;;;;;;;;;;5013128;28;20033;-70
2022/04/03 11:21:12;;;;;;;2.97;2.17;;;;;;;;;;5012713;28;20443;-71
2022/04/03 11:23:44;;;;;;;2.53;2.00;;;;;;;;;;5009732;28;20443;-73
2022/04/03 11:26:10;;;;;;;9.02;4.78;;;;;;;;;;5012034;28;20397;-72
2022/04/03 11:28:36;;;;;;;10.23;4.65;;;;;;;;;;5011232;28;20025;-72
2022/04/03 11:31:03;;;;;;;5.30;3.20;;;;;;;;;;5012512;28;20026;-73
2022/04/03 11:33:30;;;;;;;3.95;2.80;;;;;;;;;;5021449;28;20049;-71
2022/04/03 11:36:03;;;;;;;3.25;2.55;;;;;;;;;;5032505;28;20025;-72
2022/04/03 11:38:42;;;;;;;;;;;;;;;;;;5032659;28;20026;-73
2022/04/03 11:41:12;;;;;;;2.20;1.92;;;;;;;;;;5020286;28;19921;-70
2022/04/03 11:43:37;;;;;;;4.10;2.90;;;;;;;;;;5010858;28;20360;-72
2022/04/03 11:46:04;;;;;;;2.75;2.03;;;;;;;;;;5011023;28;20116;-72
2022/04/03 11:48:32;;;;;;;9.85;5.30;;;;;;;;;;5012088;28;20025;-73
2022/04/03 11:51:03;;;;;;;4.13;3.10;;;;;;;;;;5019250;28;20021;-73
2022/04/03 11:53:29;;;;;;;3.03;2.20;;;;;;;;;;5023445;28;20033;-71
2022/04/03 11:55:55;;;;;;;3.28;2.22;;;;;;;;;;5001992;28;20021;-71
2022/04/03 11:58:30;;;;;;;2.67;2.17;;;;;;;;;;5012316;28;20494;-71
2022/04/03 12:00:57;;;;;;;2.60;2.05;;;;;;;;;;5011966;28;20033;-72
2022/04/03 12:03:29;;;;;;;2.90;2.13;;;;;;;;;;5012042;28;20222;-71
2022/04/03 12:06:11;;;;;;;2.80;2.38;;;;;;;;;;5011831;28;20473;-70
2022/04/03 12:08:40;;;;;;;3.83;2.00;;;;;;;;;;5011471;28;20037;-71
2022/04/03 12:11:15;;;;;;;3.05;2.17;;;;;;;;;;5012174;28;20422;-71
2022/04/03 12:13:40;;;;;;;2.60;2.20;;;;;;;;;;5011731;28;20120;-73
2022/04/03 12:16:07;;;;;;;3.65;2.00;;;;;;;;;;5012183;28;20121;-71
2022/04/03 12:18:51;;;;;;;2.85;1.92;;;;;;;;;;5011549;28;20033;-71
2022/04/03 12:21:17;;;;;;;2.15;1.92;;;;;;;;;;5011570;28;20057;-70
2022/04/03 12:24:03;;;;;;;2.38;2.10;;;;;;;;;;5011261;28;20042;-70
2022/04/03 12:26:29;;;;;;;2.70;2.03;;;;;;;;;;4991619;28;20071;-70
2022/04/03 12:28:56;;;;;;;5.60;4.18;;;;;;;;;;5002102;28;20103;-72
2022/04/03 12:31:40;;;;;;;3.40;2.55;;;;;;;;;;5011240;28;20387;-72
2022/04/03 12:34:16;;;;;;;9.77;5.30;;;;;;;;;;5011175;28;20029;-72
2022/04/03 12:36:44;;;;;;;2.92;2.42;;;;;;;;;;5011752;28;20028;-71
2022/04/03 12:39:32;;;;;;;2.58;2.15;;;;;;;;;;5011307;28;20022;-72
2022/04/03 12:42:08;;;;;;;3.35;2.22;;;;;;;;;;5010942;28;20053;-72
2022/04/03 12:45:12;;;;;;;5.32;3.15;;;;;;;;;;4993408;28;20029;-72
2022/04/03 12:47:40;;;;;;;;;;;;;;;;;;4999300;28;20085;-75
2022/04/03 12:50:05;;;;;;;3.10;1.98;;;;;;;;;;5011004;28;20017;-72
2022/04/03 12:52:49;;;;;;;4.18;2.42;;;;;;;;;;5010837;28;20109;-71
2022/04/03 13:00:52;;;;;;;2.15;1.95;;;;;;;;;;5011185;28;20048;-71
2022/04/03 13:03:34;;;;;;;2.15;1.95;;;;;;;;;;5011305;28;20022;-70
2022/04/03 13:06:07;;;;;;;3.55;2.70;;;;;;;;;;5010842;28;20197;-70
2022/04/03 13:09:05;;;;;;;5.03;3.17;;;;;;;;;;5010896;28;20029;-72
2022/04/03 13:11:50;;;;;;;5.68;2.30;;;;;;;;;;4988441;28;20450;-71
2022/04/03 13:14:19;;;;;;;2.10;1.90;;;;;;;;;;5010212;28;20518;-71
2022/04/03 13:16:48;;;;;;;4.15;2.25;;;;;;;;;;4990753;28;20030;-73
2022/04/03 13:19:14;;;;;;;2.38;2.10;;;;;;;;;;5003347;28;20039;-72
2022/04/03 13:21:41;;;;;;;2.58;2.15;;;;;;;;;;5010892;28;20325;-73
2022/04/03 13:24:07;;;;;;;2.67;2.30;;;;;;;;;;5010710;28;20032;-74
2022/04/03 13:26:32;;;;;;;7.90;3.63;;;;;;;;;;4993096;28;20025;-70
2022/04/03 13:28:58;;;;;;;5.22;2.60;;;;;;;;;;5010010;28;20480;-71
2022/04/03 13:31:24;;;;;;;4.40;2.70;;;;;;;;;;5007940;28;20418;-72
2022/04/03 13:33:50;;;;;;;3.10;2.60;;;;;;;;;;5006981;28;20029;-73
2022/04/03 13:36:15;;;;;;;3.63;2.95;;;;;;;;;;5008918;28;20388;-72
2022/04/03 13:38:41;;;;;;;5.40;3.38;;;;;;;;;;5009535;28;20423;-72
2022/04/03 13:41:07;;;;;;;12.85;6.70;;;;;;;;;;5010373;28;20392;-73
2022/04/03 13:43:32;;;;;;;8.30;4.40;;;;;;;;;;5009937;28;20464;-77
2022/04/03 13:45:58;;;;;;;7.35;4.43;;;;;;;;;;5010319;28;20100;-73
2022/04/03 13:48:32;;;;;;;3.97;3.03;;;;;;;;;;5010399;28;20018;-71
2022/04/03 13:50:58;;;;;;;2.97;2.30;;;;;;;;;;5010418;28;20029;-72
2022/04/03 13:53:25;;;;;;;6.18;3.47;;;;;;;;;;5010542;28;20075;-73
2022/04/03 13:55:51;;;;;;;2.47;2.25;;;;;;;;;;5010391;28;20026;-73
2022/04/03 13:58:16;;;;;;;3.33;2.20;;;;;;;;;;5009969;28;20538;-70
2022/04/03 14:00:42;;;;;;;4.03;2.67;;;;;;;;;;5010551;28;20026;-70
2022/04/03 14:03:07;;;;;;;6.18;4.05;;;;;;;;;;5010041;28;20029;-72
2022/04/03 14:05:33;;;;;;;4.25;3.17;;;;;;;;;;5010247;28;20160;-73
2022/04/03 14:07:58;;;;;;;7.15;4.43;;;;;;;;;;5010039;28;20030;-72
2022/04/03 14:10:23;;;;;;;8.57;4.88;;;;;;;;;;5010191;28;20022;-74
2022/04/03 14:12:49;;;;;;;7.75;4.43;;;;;;;;;;5009897;28;20364;-74
2022/04/03 14:15:14;;;;;;;7.30;4.40;;;;;;;;;;5050376;22;20080;-75
2022/04/03 14:17:40;;;;;;;5.93;3.35;;;;;;;;;;5029698;28;20025;-75
2022/04/03 14:20:08;;;;;;;6.32;3.72;;;;;;;;;;5029532;28;20064;-76
2022/04/03 14:22:34;;;;;;;6.43;4.03;;;;;;;;;;5029991;28;20068;-75
2022/04/03 14:24:59;;;;;;;3.65;2.58;;;;;;;;;;5029130;28;20053;-75
2022/04/03 14:27:25;;;;;;;4.95;3.10;;;;;;;;;;5030132;28;20036;-75
2022/04/03 14:29:50;;;;;;;4.75;2.97;;;;;;;;;;5029758;28;20026;-73
2022/04/03 14:32:15;;;;;;;3.53;2.58;;;;;;;;;;5029795;28;20037;-75
2022/04/03 14:34:41;;;;;;;4.18;2.97;;;;;;;;;;5029448;28;20021;-74
2022/04/03 14:37:06;;;;;;;4.30;2.78;;;;;;;;;;5029612;28;20029;-75
2022/04/03 14:39:31;;;;;;;3.42;2.47;;;;;;;;;;5029679;28;20052;-76
2022/04/03 14:41:57;;;;;;;3.90;2.65;;;;;;;;;;5027964;28;20021;-75
2022/04/03 14:44:22;;;;;;;3.42;2.70;;;;;;;;;;5029509;28;20418;-77
2022/04/03 14:46:47;;;;;;;3.15;2.45;;;;;;;;;;5029407;28;20044;-75